Main page
METAR-TAF:

METAR-TAF

Airports :

Ras Al Khaimah International Airport

Ras al-Khaimah, United Arab Emirates

latitude: 25-37N, longitude: 055-56E, elevation: 31 m

Current weather observation

The report was made 59 minutes ago, at 03:00 UTC
Wind 2 kt from the South
Temperature 11°C
Humidity 47%
Pressure 1021 hPa
Visibility 10 km or more
no clouds below 1500 m and no cumulonimbus

METAR: OMRK 090300Z 19002KT CAVOK 11/00 Q1020 A3014

Time: 07:59 (03:59 UTC)

Forecast

The report was made 4 hours and 59 minutes ago, at 23:00 UTC
Forecast valid from 09 at 00 UTC to 10 at 06 UTC
Wind 5 kt from the East/Southeast
Visibility 10 km or more
no clouds below 1500 m and no cumulonimbus
Becoming
from 09 at 08 UTC to 09 at 10 UTC
Wind 10 kt from the North/Northwest
Becoming
from 09 at 14 UTC to 09 at 16 UTC
Wind 5 kt from the East

TAF: OMRK 082300Z 0900/1006 12005KT CAVOK BECMG 0908/0910 33010KT BECMG 0914/0916 09005KT

Weather observations and forecasts of more than 4000 airports (METAR and TAF reports).

The available stations are represented by yellow and red dots on the map.

Hover mouse over dot to see the name of the station.

Then click to see weather observations and forecasts.

To change the map : click on the green buttons with a black cross to zoom in, on the green button with a dash to zoom out, or on the green arrows for adjacent maps.


METAR-TAF: